Time;durP1;ratioP1;P1;durP2;ratioP2;P2;SDS_P1;SDS_P2;PMS_P1;PMS_P2;Temp;Humidity;BMP_temperature;BMP_pressure;BME280_temperature;BME280_humidity;BME280_pressure;Samples;Min_cycle;Max_cycle;Signal;HPM_P1;HPM_P2
2022/05/21 00:01:52;;;;;;;4.68;0.90;;;;;;;13.87;72.01;101250.28;4987571;28;20029;-72
2022/05/21 00:04:18;;;;;;;7.65;1.30;;;;;;;13.85;72.10;101249.78;5003295;28;20037;-72
2022/05/21 00:06:43;;;;;;;5.95;1.20;;;;;;;13.83;72.28;101246.44;5019904;28;20063;-72
2022/05/21 00:09:09;;;;;;;6.63;1.08;;;;;;;13.85;72.12;101249.78;5037540;28;20407;-72
2022/05/21 00:11:34;;;;;;;5.22;1.17;;;;;;;13.77;72.56;101240.09;5037369;28;20084;-72
2022/05/21 00:14:00;;;;;;;8.05;1.20;;;;;;;13.75;72.83;101247.09;5036091;28;20025;-72
2022/05/21 00:16:26;;;;;;;4.55;1.13;;;;;;;13.73;71.88;101241.81;5022827;28;20022;-72
2022/05/21 00:18:51;;;;;;;4.90;1.15;;;;;;;13.70;71.79;101245.19;5037539;28;20036;-72
2022/05/21 00:21:17;;;;;;;3.80;1.10;;;;;;;13.69;72.68;101242.72;5019659;28;20033;-72
2022/05/21 00:23:42;;;;;;;4.15;1.27;;;;;;;13.68;72.19;101243.81;5018464;28;20032;-72
2022/05/21 00:26:09;;;;;;;5.57;1.20;;;;;;;13.64;72.28;101241.63;5037130;28;20029;-72
2022/05/21 00:28:36;;;;;;;5.07;1.20;;;;;;;13.64;72.47;101263.13;5000195;28;20030;-72
2022/05/21 00:31:02;;;;;;;4.45;1.23;;;;;;;13.62;72.75;101259.78;5003249;28;20112;-72
2022/05/21 00:33:28;;;;;;;8.55;1.38;;;;;;;13.60;72.78;101259.28;4999888;28;20076;-72
2022/05/21 00:35:53;;;;;;;4.28;1.02;;;;;;;13.59;73.00;101244.47;5035806;28;20105;-72
2022/05/21 00:38:19;;;;;;;7.47;1.20;;;;;;;13.55;73.17;101251.78;4987057;28;20036;-72
2022/05/21 00:40:45;;;;;;;2.92;0.95;;;;;;;13.56;72.89;101261.81;5019221;28;20033;-72
2022/05/21 00:43:34;;;;;;;4.88;1.13;;;;;;;13.55;73.19;101257.38;4999829;28;20394;-72
2022/05/21 00:46:00;;;;;;;4.03;1.00;;;;;;;13.51;73.35;101259.09;5024938;28;20070;-72
2022/05/21 00:48:26;;;;;;;3.95;1.25;;;;;;;13.51;73.18;101258.25;5034406;28;20072;-72
2022/05/21 00:50:52;;;;;;;4.03;0.90;;;;;;;13.48;73.28;101242.94;5035852;28;20025;-72
2022/05/21 00:53:17;;;;;;;4.68;1.08;;;;;;;13.48;74.13;101240.13;5035417;28;20036;-72
2022/05/21 00:55:43;;;;;;;3.83;0.80;;;;;;;13.45;74.10;101246.31;5035541;28;20026;-72
2022/05/21 01:00:55;;;;;;;6.18;1.17;;;;;;;13.41;73.95;101253.63;5035559;28;20036;-72
2022/05/21 01:03:21;;;;;;;4.95;1.65;;;;;;;13.39;74.12;101247.50;5034015;28;20029;-72
2022/05/21 01:05:46;;;;;;;5.75;1.38;;;;;;;13.37;73.85;101252.53;5018595;28;20533;-72
2022/05/21 01:08:12;;;;;;;4.65;1.10;;;;;;;13.33;74.01;101246.72;5024752;28;20020;-72
2022/05/21 01:10:40;;;;;;;4.25;1.00;;;;;;;13.33;73.85;101254.25;5026004;28;20389;-72
2022/05/21 01:13:08;;;;;;;5.63;1.30;;;;;;;13.29;73.96;101251.25;5018853;28;20046;-72
2022/05/21 01:15:38;;;;;;;5.35;1.33;;;;;;;13.27;74.07;101249.88;5024092;28;20475;-72
2022/05/21 01:18:06;;;;;;;3.25;1.10;;;;;;;13.27;74.39;101253.47;5033910;28;20033;-72
2022/05/21 01:20:38;;;;;;;4.63;1.27;;;;;;;13.23;74.26;101249.56;5036375;28;20029;-72
2022/05/21 01:23:04;;;;;;;3.63;1.02;;;;;;;13.23;74.79;101251.53;5001161;28;20023;-72
2022/05/21 01:25:31;;;;;;;6.45;1.35;;;;;;;13.22;74.88;101247.09;5036257;28;20121;-72
2022/05/21 01:27:57;;;;;;;3.30;0.82;;;;;;;13.21;74.90;101245.44;5048424;28;20031;-72
2022/05/21 01:30:27;;;;;;;5.68;1.38;;;;;;;13.18;74.70;101244.91;5018993;28;20394;-72
2022/05/21 01:32:52;;;;;;;7.40;1.38;;;;;;;13.17;74.71;101247.97;5022304;28;20034;-72
2022/05/21 01:35:18;;;;;;;6.78;1.10;;;;;;;13.16;74.50;101235.97;5018267;28;20029;-72
2022/05/21 01:37:45;;;;;;;5.65;1.15;;;;;;;13.14;74.84;101237.41;5041603;28;20044;-72
2022/05/21 01:40:10;;;;;;;4.72;1.10;;;;;;;13.11;75.44;101238.81;5034856;28;20025;-73
2022/05/21 01:42:36;;;;;;;6.18;1.50;;;;;;;13.12;75.16;101242.44;5035064;28;20078;-72
2022/05/21 01:45:02;;;;;;;5.18;1.10;;;;;;;13.10;75.08;101242.75;5035035;28;20060;-72
2022/05/21 01:47:29;;;;;;;5.43;1.30;;;;;;;13.07;75.40;101237.75;5035089;28;20048;-72
2022/05/21 01:49:54;;;;;;;3.42;1.45;;;;;;;13.04;75.17;101246.72;5034594;28;20041;-72
2022/05/21 01:52:20;;;;;;;4.53;1.17;;;;;;;13.03;75.22;101239.44;5029717;28;20043;-72
2022/05/21 01:54:45;;;;;;;6.35;1.30;;;;;;;13.01;75.33;101241.72;5035892;28;20032;-72
2022/05/21 01:57:11;;;;;;;4.53;1.02;;;;;;;12.99;75.28;101231.97;5034677;28;20033;-73
2022/05/21 01:59:37;;;;;;;6.28;1.33;;;;;;;12.97;75.48;101223.88;5002017;28;20034;-72
2022/05/21 02:02:02;;;;;;;6.00;1.52;;;;;;;12.95;75.82;101226.13;5034995;28;20029;-72
2022/05/21 02:04:28;;;;;;;4.97;1.10;;;;;;;12.91;76.18;101222.28;5054996;28;20390;-72
2022/05/21 02:06:53;;;;;;;3.63;1.08;;;;;;;12.90;76.37;101227.03;5038700;28;20088;-72
2022/05/21 02:09:19;;;;;;;5.97;1.17;;;;;;;12.88;76.13;101234.03;5038540;28;20095;-72
2022/05/21 02:11:45;;;;;;;5.63;1.40;;;;;;;12.85;76.13;101232.66;5039753;28;20049;-72
2022/05/21 02:14:10;;;;;;;4.95;1.30;;;;;;;12.85;76.16;101232.66;5039626;28;20033;-72
2022/05/21 02:16:36;;;;;;;8.77;1.30;;;;;;;12.82;76.56;101229.63;5005502;28;20064;-72
2022/05/21 02:19:03;;;;;;;6.93;1.42;;;;;;;12.80;76.82;101227.09;5022106;28;20029;-72
2022/05/21 02:21:29;;;;;;;5.25;1.13;;;;;;;12.79;76.65;101219.03;5021831;28;20037;-72
2022/05/21 02:23:54;;;;;;;5.53;0.98;;;;;;;12.76;76.55;101226.03;5016166;28;20057;-72
2022/05/21 02:26:20;;;;;;;5.30;1.35;;;;;;;12.73;76.64;101212.66;5002063;28;20038;-72
2022/05/21 02:28:46;;;;;;;5.45;1.45;;;;;;;12.72;76.69;101214.63;5012167;28;20501;-72
2022/05/21 02:31:11;;;;;;;3.90;1.33;;;;;;;12.69;76.88;101208.81;5005761;28;20029;-72
2022/05/21 02:33:37;;;;;;;3.38;1.10;;;;;;;12.69;76.99;101206.03;5004979;28;20142;-72
2022/05/21 02:36:02;;;;;;;6.45;1.40;;;;;;;12.67;77.68;101206.31;5001875;28;20053;-72
2022/05/21 02:41:13;;;;;;;7.28;1.50;;;;;;;12.63;77.60;101208.03;5033660;28;20031;-72
2022/05/21 02:43:39;;;;;;;6.63;1.60;;;;;;;12.61;77.61;101196.31;5041640;28;20029;-72
2022/05/21 02:46:05;;;;;;;4.80;1.17;;;;;;;12.60;77.42;101205.81;5039181;28;20560;-72
2022/05/21 02:48:31;;;;;;;7.60;1.30;;;;;;;12.60;77.69;101211.38;5021165;28;20029;-72
2022/05/21 02:50:57;;;;;;;5.90;1.10;;;;;;;12.59;77.96;101209.75;5021214;28;20486;-72
2022/05/21 02:53:22;;;;;;;7.00;1.40;;;;;;;12.59;78.45;101214.44;5039036;28;20033;-72
2022/05/21 02:55:49;;;;;;;3.38;1.25;;;;;;;12.56;78.08;101209.47;5070790;28;20028;-72
2022/05/21 02:58:15;;;;;;;5.47;1.13;;;;;;;12.54;78.38;101206.97;5021437;28;20479;-72
2022/05/21 03:00:40;;;;;;;9.88;1.40;;;;;;;12.54;78.22;101209.78;5054415;28;20041;-72
2022/05/21 03:03:06;;;;;;;7.82;1.70;;;;;;;12.52;78.36;101207.25;5038614;28;20027;-72
2022/05/21 03:05:32;;;;;;;5.10;1.45;;;;;;;12.52;78.18;101204.47;5047118;28;20025;-72
2022/05/21 03:07:57;;;;;;;6.40;1.70;;;;;;;12.49;78.11;101199.50;5024251;28;20478;-72
2022/05/21 03:10:24;;;;;;;4.57;1.30;;;;;;;12.50;78.06;101206.72;5037563;28;20037;-72
2022/05/21 03:12:53;;;;;;;6.35;1.73;;;;;;;12.49;78.44;101209.81;5041955;28;20051;-72
2022/05/21 03:15:20;;;;;;;7.53;1.27;;;;;;;12.47;78.22;101192.53;5036911;28;20026;-72
2022/05/21 03:17:46;;;;;;;4.22;1.10;;;;;;;12.45;78.24;101190.06;5034850;28;20553;-72
2022/05/21 03:20:13;;;;;;;6.10;1.30;;;;;;;12.44;78.17;101190.34;5037017;28;20029;-72
2022/05/21 03:22:40;;;;;;;9.73;1.45;;;;;;;12.45;77.99;101183.63;5019886;28;20025;-72
2022/05/21 03:25:06;;;;;;;5.90;1.58;;;;;;;12.43;78.01;101178.38;5037300;28;20035;-72
2022/05/21 03:27:31;;;;;;;6.43;1.50;;;;;;;12.41;78.29;101185.34;5037432;28;20068;-72
2022/05/21 03:29:57;;;;;;;5.30;1.20;;;;;;;12.40;78.47;101180.91;5037995;28;20060;-72
2022/05/21 03:32:22;;;;;;;7.93;1.50;;;;;;;12.39;79.63;101182.00;5037077;28;20095;-72
2022/05/21 03:34:48;;;;;;;7.25;1.60;;;;;;;12.35;79.58;101183.72;5036758;28;20029;-72
2022/05/21 03:37:13;;;;;;;7.95;1.27;;;;;;;12.34;79.24;101177.34;5037308;28;20432;-72
2022/05/21 03:39:39;;;;;;;3.45;1.00;;;;;;;12.33;78.88;101188.75;5038265;28;20032;-72
2022/05/21 03:42:05;;;;;;;6.03;1.33;;;;;;;12.30;78.83;101171.50;5038007;28;20029;-72
2022/05/21 03:44:30;;;;;;;8.48;1.33;;;;;;;12.28;79.23;101184.03;5038132;28;20076;-72
2022/05/21 03:46:58;;;;;;;8.77;2.30;;;;;;;12.27;79.32;101182.38;5020411;28;20030;-72
2022/05/21 03:49:24;;;;;;;6.63;1.70;;;;;;;12.25;79.72;101181.84;5038143;28;20033;-72
2022/05/21 03:51:50;;;;;;;7.80;1.30;;;;;;;12.23;79.73;101184.06;5030728;28;20041;-72
2022/05/21 03:54:15;;;;;;;5.05;1.45;;;;;;;12.20;79.79;101179.94;5037991;28;20030;-72
2022/05/21 03:56:41;;;;;;;8.38;1.50;;;;;;;12.20;79.64;101176.28;5020212;28;20378;-72
2022/05/21 03:59:07;;;;;;;6.93;1.40;;;;;;;12.17;79.28;101180.47;5036562;28;20026;-72
2022/05/21 04:01:32;;;;;;;5.55;1.35;;;;;;;12.16;79.74;101173.25;5037877;28;20446;-72
2022/05/21 04:03:58;;;;;;;6.82;1.48;;;;;;;12.14;80.00;101181.06;5037794;28;20504;-72
2022/05/21 04:06:23;;;;;;;7.85;1.50;;;;;;;12.12;80.53;101172.19;5036051;28;20033;-72
2022/05/21 04:08:52;;;;;;;9.02;2.03;;;;;;;12.11;80.36;101186.38;5017021;28;20030;-72
2022/05/21 04:11:18;;;;;;;6.13;1.35;;;;;;;12.08;80.36;101188.63;5035441;28;20043;-72
2022/05/21 04:13:43;;;;;;;7.80;1.48;;;;;;;12.09;79.97;101181.13;5020104;28;20033;-72
2022/05/21 04:16:09;;;;;;;5.70;1.50;;;;;;;12.06;80.07;101173.31;5023940;28;20041;-72
2022/05/21 04:18:34;;;;;;;6.63;1.70;;;;;;;12.03;80.42;101173.91;5016624;28;20061;-72
2022/05/21 04:21:00;;;;;;;8.07;1.85;;;;;;;12.04;80.54;101176.41;5015733;28;20033;-72
2022/05/21 04:23:25;;;;;;;7.53;1.70;;;;;;;12.01;80.57;101181.72;5026374;28;20421;-72
2022/05/21 04:25:51;;;;;;;6.60;1.60;;;;;;;12.00;80.71;101175.31;5039371;28;20064;-72
2022/05/21 04:28:17;;;;;;;6.88;2.00;;;;;;;11.99;80.54;101181.16;5036148;28;20036;-72
2022/05/21 04:30:43;;;;;;;6.32;1.67;;;;;;;12.01;80.95;101181.72;5018986;28;20030;-73
2022/05/21 04:33:08;;;;;;;11.48;1.75;;;;;;;11.97;80.53;101181.44;5035970;28;20033;-72
2022/05/21 04:38:18;;;;;;;7.65;1.90;;;;;;;11.94;81.88;101178.41;5022118;28;20025;-72
2022/05/21 04:40:44;;;;;;;8.95;2.30;;;;;;;11.93;81.60;101185.94;5013762;28;20037;-72
2022/05/21 04:43:09;;;;;;;10.18;2.15;;;;;;;11.92;81.26;101177.84;5008278;28;20038;-72
2022/05/21 04:45:35;;;;;;;6.70;1.98;;;;;;;11.93;81.39;101176.75;5009496;28;20029;-72
2022/05/21 04:48:07;;;;;;;8.23;1.80;;;;;;;11.91;81.26;101184.56;4994548;28;20022;-72
2022/05/21 04:50:34;;;;;;;7.70;1.77;;;;;;;11.91;81.86;101185.38;5035248;28;20161;-72
2022/05/21 04:52:59;;;;;;;11.60;2.28;;;;;;;11.91;81.37;101188.16;5036810;28;20044;-72
2022/05/21 04:55:25;;;;;;;6.63;1.63;;;;;;;11.92;82.05;101178.69;5036608;28;20025;-72
2022/05/21 04:57:50;;;;;;;8.40;2.05;;;;;;;11.96;82.47;101193.72;5036670;28;20033;-72
2022/05/21 05:00:16;;;;;;;8.07;1.88;;;;;;;11.98;82.32;101188.69;5036651;28;20043;-72
2022/05/21 05:02:41;;;;;;;8.98;2.08;;;;;;;12.03;82.30;101190.59;5018567;28;20033;-72
2022/05/21 05:05:12;;;;;;;7.55;1.80;;;;;;;12.08;82.68;101190.56;5015414;28;20113;-72
2022/05/21 05:07:38;;;;;;;12.55;2.08;;;;;;;12.12;82.93;101194.47;5029765;28;20037;-72
2022/05/21 05:10:04;;;;;;;9.63;2.50;;;;;;;12.18;83.97;101192.47;5035133;28;20028;-72
2022/05/21 05:12:31;;;;;;;9.82;2.05;;;;;;;12.25;83.04;101187.41;5034628;28;20528;-73
2022/05/21 05:14:57;;;;;;;7.70;2.30;;;;;;;12.34;83.13;101193.19;5012083;28;20030;-72
2022/05/21 05:17:22;;;;;;;8.65;2.22;;;;;;;12.42;83.74;101187.81;5027993;28;20052;-72
2022/05/21 05:19:48;;;;;;;10.52;2.22;;;;;;;12.50;83.98;101186.38;5018592;28;20048;-72
2022/05/21 05:22:14;;;;;;;11.32;2.47;;;;;;;12.61;84.42;101195.50;5033765;28;20030;-72
2022/05/21 05:24:39;;;;;;;10.02;2.10;;;;;;;12.70;88.27;101200.16;5036010;28;20045;-72
2022/05/21 05:27:05;;;;;;;12.52;2.47;;;;;;;12.80;88.58;101199.22;5036490;28;20032;-72
2022/05/21 05:29:31;;;;;;;13.48;2.80;;;;;;;12.90;89.33;101209.47;5023270;28;20056;-72
2022/05/21 05:31:56;;;;;;;14.40;2.92;;;;;;;12.99;87.92;101207.72;5036274;28;20033;-72
2022/05/21 05:34:21;;;;;;;11.48;2.58;;;;;;;13.08;88.33;101205.94;5036068;28;20029;-72
2022/05/21 05:36:47;;;;;;;9.65;2.22;;;;;;;13.17;85.87;101209.75;5034530;28;20481;-72
2022/05/21 05:39:13;;;;;;;11.82;2.38;;;;;;;13.28;88.92;101212.47;5036033;28;20037;-72
2022/05/21 05:41:39;;;;;;;11.35;2.70;;;;;;;13.37;87.00;101208.75;5015288;28;20030;-72
2022/05/21 05:44:05;;;;;;;10.88;2.30;;;;;;;13.48;83.81;101203.84;5036173;28;20033;-72
2022/05/21 05:46:30;;;;;;;13.35;2.83;;;;;;;13.59;87.40;101204.56;5031778;28;20022;-72
2022/05/21 05:48:56;;;;;;;14.02;2.88;;;;;;;13.64;86.28;101218.47;5033894;28;20083;-72
2022/05/21 05:51:21;;;;;;;10.68;3.13;;;;;;;13.71;85.65;101215.34;5017940;28;20029;-72
2022/05/21 05:53:47;;;;;;;14.40;3.03;;;;;;;13.76;86.36;101220.84;5036250;28;20025;-72
2022/05/21 05:56:13;;;;;;;12.02;3.00;;;;;;;13.80;85.60;101216.34;5036021;28;20466;-72
2022/05/21 06:01:25;;;;;;;11.60;3.00;;;;;;;13.85;85.60;101219.06;5034943;28;20037;-72
2022/05/21 06:03:52;;;;;;;7.20;2.63;;;;;;;13.93;84.65;101221.19;5003140;28;20495;-72
2022/05/21 06:06:17;;;;;;;10.80;2.72;;;;;;;13.93;85.00;101218.41;4995434;28;20022;-74
2022/05/21 06:08:46;;;;;;;7.72;2.20;;;;;;;13.98;84.96;101223.91;5009014;28;20026;-74
2022/05/21 06:11:12;;;;;;;6.60;2.20;;;;;;;14.01;84.91;101220.53;5015686;28;20026;-75
2022/05/21 06:13:37;;;;;;;6.82;2.60;;;;;;;13.91;86.71;101229.03;5006170;28;20069;-75
2022/05/21 06:16:03;;;;;;;7.75;2.65;;;;;;;13.88;88.00;101235.22;5035348;28;20501;-75
2022/05/21 06:18:29;;;;;;;10.27;3.05;;;;;;;13.92;87.43;101227.88;5001693;28;20029;-75
2022/05/21 06:20:58;;;;;;;5.57;2.50;;;;;;;13.91;87.63;101223.44;5021128;28;20376;-75
2022/05/21 06:23:23;;;;;;;5.68;2.30;;;;;;;13.93;87.64;101225.94;5027070;28;20033;-75
2022/05/21 06:25:49;;;;;;;7.80;2.95;;;;;;;13.93;88.10;101220.34;5039631;28;20044;-75
2022/05/21 06:28:14;;;;;;;6.38;2.65;;;;;;;13.97;87.99;101227.00;5077154;28;20029;-75
2022/05/21 06:30:41;;;;;;;6.95;2.53;;;;;;;13.96;87.98;101219.78;5021976;28;20037;-75
2022/05/21 06:33:23;;;;;;;4.45;2.40;;;;;;;14.03;88.42;101215.44;4998521;28;20026;-75
2022/05/21 06:36:01;;;;;;;6.05;2.72;;;;;;;14.05;88.75;101216.00;5019062;28;20023;-75
2022/05/21 06:38:26;;;;;;;6.55;2.92;;;;;;;13.99;90.46;101216.38;5003543;28;20065;-75
2022/05/21 06:40:52;;;;;;;6.00;3.50;;;;;;;14.01;90.39;101214.94;5034144;28;20037;-75
2022/05/21 06:43:18;;;;;;;5.57;2.90;;;;;;;14.06;89.34;101226.03;5035564;28;20033;-75
2022/05/21 06:45:43;;;;;;;6.57;3.40;;;;;;;14.11;90.28;101233.50;5035516;28;20029;-75
2022/05/21 06:48:09;;;;;;;7.85;3.95;;;;;;;14.13;91.36;101227.63;5016892;28;20030;-75
2022/05/21 06:50:34;;;;;;;7.05;4.00;;;;;;;14.13;92.16;101228.47;5003570;28;20478;-75
2022/05/21 06:53:00;;;;;;;4.15;3.10;;;;;;;14.19;91.03;101229.22;5004950;28;20035;-75
2022/05/21 06:55:26;;;;;;;8.70;4.47;;;;;;;14.20;91.85;101219.69;5039047;28;20390;-75
2022/05/21 06:57:51;;;;;;;7.90;4.10;;;;;;;14.30;91.23;101225.16;5038937;28;20033;-74
2022/05/21 07:00:18;;;;;;;7.43;4.05;;;;;;;14.37;91.40;101235.94;4991108;28;20034;-75
2022/05/21 07:02:44;;;;;;;11.13;4.80;;;;;;;14.39;92.64;101233.69;5030707;28;20123;-75
2022/05/21 07:07:54;;;;;;;11.23;4.75;;;;;;;14.56;91.00;101230.38;5027259;28;20099;-75
2022/05/21 07:10:24;;;;;;;11.98;4.93;;;;;;;14.63;92.78;101230.84;5037608;28;20041;-70
2022/05/21 07:12:49;;;;;;;15.95;5.65;;;;;;;14.72;92.74;101242.97;5021401;28;20091;-74
2022/05/21 07:15:15;;;;;;;16.45;5.47;;;;;;;14.79;92.26;101237.00;5029609;28;20026;-74
2022/05/21 07:17:41;;;;;;;14.52;5.35;;;;;;;14.86;92.41;101232.69;5049558;28;20108;-74
2022/05/21 07:20:09;;;;;;;14.23;5.38;;;;;;;14.96;92.67;101240.91;5004397;28;20060;-75
2022/05/21 07:22:34;;;;;;;13.02;5.07;;;;;;;15.03;91.93;101239.66;5019878;28;20036;-73
2022/05/21 07:25:02;;;;;;;12.82;4.80;;;;;;;15.16;90.35;101241.69;5020723;28;20030;-73
2022/05/21 07:27:27;;;;;;;18.77;6.00;;;;;;;15.22;91.79;101239.63;5021021;28;20116;-73
2022/05/21 07:29:53;;;;;;;19.05;5.32;;;;;;;15.33;91.88;101239.13;5001035;28;20087;-73
2022/05/21 07:32:22;;;;;;;16.40;6.35;;;;;;;15.40;90.85;101233.94;5003472;28;20402;-73
2022/05/21 07:34:47;;;;;;;17.40;5.28;;;;;;;15.53;90.22;101240.69;5020511;28;20022;-73
2022/05/21 07:37:13;;;;;;;18.15;5.55;;;;;;;15.67;89.85;101235.09;5004401;28;20038;-73
2022/05/21 07:39:39;;;;;;;22.92;5.93;;;;;;;15.77;89.34;101232.13;5017271;28;20121;-73
2022/05/21 07:42:05;;;;;;;16.17;4.75;;;;;;;15.95;88.66;101229.53;5036413;28;20024;-73
2022/05/21 07:44:31;;;;;;;17.10;4.93;;;;;;;16.08;88.24;101235.09;5014149;28;20560;-73
2022/05/21 07:46:56;;;;;;;17.02;5.80;;;;;;;16.19;88.74;101234.91;5004028;28;20033;-73
2022/05/21 07:49:23;;;;;;;19.52;5.88;;;;;;;16.38;87.97;101229.13;5036473;28;20065;-73
2022/05/21 07:51:49;;;;;;;22.42;5.68;;;;;;;16.57;87.64;101228.97;5004541;28;20700;-73
2022/05/21 07:54:14;;;;;;;17.10;5.22;;;;;;;16.76;89.51;101224.00;4987714;28;20026;-73
2022/05/21 07:56:40;;;;;;;17.52;5.00;;;;;;;17.01;87.08;101227.34;5020067;28;20346;-74
2022/05/21 07:59:05;;;;;;;18.67;4.90;;;;;;;17.30;85.00;101227.69;5003924;28;20091;-73
2022/05/21 08:01:30;;;;;;;18.50;4.93;;;;;;;17.56;83.68;101233.41;5019683;28;20055;-73
2022/05/21 08:03:56;;;;;;;16.63;4.35;;;;;;;17.85;82.80;101229.25;5033544;28;20038;-73
2022/05/21 08:06:21;;;;;;;12.77;3.78;;;;;;;18.11;81.10;101231.28;5019607;28;20048;-73
2022/05/21 08:08:50;;;;;;;19.23;4.15;;;;;;;18.37;80.64;101234.16;5036863;28;20026;-73
2022/05/21 08:11:16;;;;;;;14.20;4.03;;;;;;;18.61;78.70;101220.44;5019813;28;20041;-74
2022/05/21 08:13:42;;;;;;;16.65;4.15;;;;;;;18.90;77.12;101224.59;5016983;28;20034;-74
2022/05/21 08:16:08;;;;;;;21.90;4.15;;;;;;;19.12;75.15;101220.75;5039307;28;20418;-73
2022/05/21 08:18:34;;;;;;;20.27;4.65;;;;;;;19.37;74.03;101225.47;5019898;28;20033;-74
2022/05/21 08:20:59;;;;;;;14.75;3.88;;;;;;;19.60;73.24;101222.41;5037220;28;20060;-74
2022/05/21 08:28:54;;;;;;;16.98;3.25;;;;;;;20.22;70.50;101216.09;5037201;28;20036;-74
2022/05/21 08:31:19;;;;;;;11.98;2.78;;;;;;;20.36;69.09;101210.19;5016345;28;20037;-74
2022/05/21 08:33:45;;;;;;;10.13;3.13;;;;;;;20.49;68.50;101216.72;5034422;28;20026;-74
2022/05/21 08:36:11;;;;;;;13.30;3.60;;;;;;;20.64;67.80;101212.47;5035808;28;20025;-75
2022/05/21 08:38:36;;;;;;;13.00;3.17;;;;;;;20.70;67.68;101194.19;5017534;28;20108;-74
2022/05/21 08:41:04;;;;;;;9.70;2.92;;;;;;;20.87;66.47;101199.66;5019251;28;20029;-75
2022/05/21 08:43:38;;;;;;;14.43;3.42;;;;;;;21.03;66.24;101196.16;5019428;28;20493;-74
2022/05/21 08:46:08;;;;;;;10.75;2.75;;;;;;;21.19;64.51;101200.78;5019336;28;20029;-73
2022/05/21 08:48:34;;;;;;;13.13;2.88;;;;;;;21.30;63.81;101191.88;5015709;28;20124;-74
2022/05/21 08:51:04;;;;;;;12.73;3.15;;;;;;;21.38;63.23;101197.44;5032512;28;20054;-74
2022/05/21 08:53:30;;;;;;;9.45;2.63;;;;;;;21.59;63.43;101186.06;5034657;28;20036;-74
2022/05/21 08:55:57;;;;;;;13.55;3.17;;;;;;;21.58;63.08;101178.75;5036701;28;20105;-74
2022/05/21 08:58:50;;;;;;;12.00;3.00;;;;;;;21.70;62.54;101180.75;5035318;28;20116;-69
2022/05/21 09:01:18;;;;;;;15.20;2.92;;;;;;;21.86;62.05;101189.34;5035141;28;20037;-74
2022/05/21 09:03:44;;;;;;;11.85;3.00;;;;;;;22.05;60.93;101174.59;5035281;28;20063;-76
2022/05/21 09:06:19;;;;;;;13.98;2.90;;;;;;;22.17;60.32;101179.41;5017634;28;20117;-77
2022/05/21 09:08:49;;;;;;;8.70;2.10;;;;;;;22.36;59.73;101168.28;5027136;28;20123;-75
2022/05/21 09:11:18;;;;;;;13.10;2.50;;;;;;;22.40;58.42;101174.06;5035052;28;20544;-73
2022/05/21 09:13:50;;;;;;;13.77;2.95;;;;;;;22.46;57.68;101175.47;5018473;28;20040;-74
2022/05/21 09:19:08;;;;;;;11.30;2.45;;;;;;;22.72;57.50;101158.84;4997550;28;20045;-74
2022/05/21 09:21:36;;;;;;;11.63;2.42;;;;;;;22.75;56.59;101158.09;5015284;28;20026;-73
2022/05/21 09:24:03;;;;;;;9.95;2.30;;;;;;;22.89;58.00;101156.88;5026714;28;20044;-73
2022/05/21 09:26:48;;;;;;;12.60;2.35;;;;;;;23.04;55.69;101152.44;5035358;28;20029;-73
2022/05/21 09:29:28;;;;;;;11.57;2.40;;;;;;;23.10;53.81;101151.00;5038751;28;20020;-74
2022/05/21 09:31:57;;;;;;;11.30;2.03;;;;;;;23.27;54.80;101156.31;5008066;28;20049;-73
2022/05/21 09:34:29;;;;;;;9.73;2.65;;;;;;;23.38;55.44;101142.41;4981927;28;20026;-74
2022/05/21 09:36:55;;;;;;;8.40;2.05;;;;;;;23.55;55.01;101138.38;5031568;28;20040;-74
2022/05/21 09:39:39;;;;;;;12.88;2.40;;;;;;;23.68;54.00;101130.56;4998908;28;20034;-73
2022/05/21 09:45:23;;;;;;;11.45;2.42;;;;;;;23.77;51.20;101129.22;5021010;28;20095;-74
2022/05/21 09:48:03;;;;;;;9.88;2.40;;;;;;;24.00;51.46;101134.19;4986951;28;20030;-76
2022/05/21 09:50:29;;;;;;;11.68;2.38;;;;;;;24.10;51.60;101122.28;5034454;28;20618;-73
2022/05/21 09:52:55;;;;;;;9.38;2.47;;;;;;;24.18;52.55;101109.91;5018249;28;20026;-73
2022/05/21 09:55:26;;;;;;;6.25;1.70;;;;;;;24.33;52.20;101113.84;5018506;28;20022;-74
2022/05/21 09:57:51;;;;;;;11.20;1.92;;;;;;;24.41;50.99;101114.81;5016405;28;20037;-73
2022/05/21 10:00:51;;;;;;;6.60;2.20;;;;;;;24.37;51.32;101117.56;5014930;28;20479;-74
2022/05/21 10:03:17;;;;;;;12.25;2.50;;;;;;;24.52;51.05;101113.06;5014043;28;20072;-73
2022/05/21 10:05:48;;;;;;;9.70;1.98;;;;;;;24.64;50.82;101107.19;5001512;28;20465;-74
2022/05/21 10:11:02;;;;;;;9.98;2.20;;;;;;;24.75;49.03;101096.88;5034866;28;20029;-74
2022/05/21 10:13:37;;;;;;;10.07;2.25;;;;;;;24.96;49.20;101101.28;4998585;28;20049;-74
2022/05/21 10:16:14;;;;;;;10.45;2.03;;;;;;;25.07;49.66;101092.97;4988774;28;20028;-74
2022/05/21 10:18:40;;;;;;;12.50;2.03;;;;;;;25.15;48.23;101089.88;5044830;28;20059;-74
2022/05/21 10:21:29;;;;;;;9.55;2.15;;;;;;;25.25;48.41;101093.31;5034264;28;20394;-74
2022/05/21 10:24:16;;;;;;;9.07;2.00;;;;;;;25.28;48.18;101092.56;5020127;28;20441;-76
2022/05/21 10:26:57;;;;;;;8.90;2.50;;;;;;;25.23;48.30;101084.34;5038653;28;20030;-73
2022/05/21 10:29:44;;;;;;;8.80;2.38;;;;;;;25.29;47.78;101085.66;5038379;28;20068;-74
2022/05/21 10:32:32;;;;;;;7.80;2.20;;;;;;;25.50;47.79;101083.16;5039442;28;20575;-73
2022/05/21 10:35:22;;;;;;;8.82;2.40;;;;;;;25.62;48.45;101080.09;5018193;28;20030;-73
2022/05/21 10:38:02;;;;;;;7.25;2.33;;;;;;;25.56;46.76;101073.09;5027861;28;20099;-73
2022/05/21 10:40:43;;;;;;;8.95;2.38;;;;;;;25.72;47.45;101080.66;5039139;28;20022;-73
2022/05/21 10:43:18;;;;;;;10.52;2.58;;;;;;;25.89;48.10;101076.44;5038218;28;20043;-73
2022/05/21 10:46:30;;;;;;;7.55;2.30;;;;;;;25.86;45.48;101080.88;5025311;28;20033;-73
2022/05/21 10:49:09;;;;;;;8.00;1.75;;;;;;;25.92;44.19;101072.81;5024147;28;20045;-73
2022/05/21 10:51:36;;;;;;;6.45;1.88;;;;;;;26.04;44.15;101064.84;5020995;28;20125;-73
2022/05/21 10:54:17;;;;;;;6.60;1.83;;;;;;;26.13;44.71;101069.44;5021721;28;20033;-73
2022/05/21 10:57:09;;;;;;;10.07;2.45;;;;;;;26.23;43.88;101066.72;5037644;28;20080;-74
2022/05/21 11:00:18;;;;;;;6.10;2.30;;;;;;;26.02;45.58;101064.44;5037392;28;20386;-74
2022/05/21 11:02:58;;;;;;;7.20;2.47;;;;;;;26.16;45.32;101045.88;4986579;28;20162;-74
2022/05/21 11:05:54;;;;;;;7.57;2.30;;;;;;;26.14;44.27;101049.13;4996698;28;20117;-74
2022/05/21 11:08:30;;;;;;;5.18;1.73;;;;;;;26.26;44.61;101048.03;4987563;28;20826;-73
2022/05/21 11:11:25;;;;;;;9.95;1.80;;;;;;;26.36;45.38;101050.22;4999879;28;20035;-73
2022/05/21 11:14:11;;;;;;;9.18;2.15;;;;;;;26.46;44.84;101051.53;5024089;28;20060;-73
2022/05/21 11:16:57;;;;;;;9.55;2.30;;;;;;;26.60;43.96;101042.34;4996871;28;20030;-73
2022/05/21 11:19:35;;;;;;;8.50;1.65;;;;;;;26.72;44.33;101042.06;5009817;28;20038;-73
2022/05/21 11:22:09;;;;;;;6.72;2.28;;;;;;;26.84;43.70;101044.63;4996814;28;20034;-73
2022/05/21 11:24:50;;;;;;;8.02;2.13;;;;;;;26.94;43.02;101038.22;4981687;28;20045;-73
2022/05/21 11:27:18;;;;;;;7.00;2.15;;;;;;;27.00;42.67;101027.28;4996653;28;20132;-73
2022/05/21 11:29:43;;;;;;;7.53;1.90;;;;;;;27.12;42.46;101029.00;4996761;28;20065;-73
2022/05/21 11:37:49;;;;;;;5.35;1.85;;;;;;;27.25;41.94;101020.97;5011346;28;20029;-73
2022/05/21 11:40:49;;;;;;;7.43;2.00;;;;;;;27.27;42.03;101015.69;5036784;28;20032;-73
2022/05/21 11:43:15;;;;;;;6.70;1.83;;;;;;;27.32;41.90;101013.28;5036905;28;20112;-75
2022/05/21 11:45:40;;;;;;;7.40;1.60;;;;;;;27.37;42.10;101009.25;5038197;28;20541;-75
2022/05/21 11:48:15;;;;;;;5.35;1.60;;;;;;;27.18;40.79;101008.28;5032119;28;20028;-74
2022/05/21 11:50:41;;;;;;;8.68;1.60;;;;;;;27.27;41.74;101004.28;5021116;28;20140;-74
2022/05/21 11:53:09;;;;;;;4.25;1.50;;;;;;;27.42;41.89;101003.16;5017950;28;20065;-75
2022/05/21 11:55:56;;;;;;;7.75;1.63;;;;;;;27.50;41.93;101012.59;5019961;28;20463;-74
2022/05/21 11:58:25;;;;;;;4.85;1.42;;;;;;;27.62;41.72;101000.84;5036647;28;20034;-74
2022/05/21 12:00:50;;;;;;;4.38;1.10;;;;;;;27.62;40.58;101001.66;5003912;28;20040;-75
2022/05/21 12:03:17;;;;;;;5.97;1.17;;;;;;;27.68;40.51;101004.13;5017104;28;20034;-74